sensor_id;sensor_type;location;lat;lon;timestamp;P1;durP1;ratioP1;P2;durP2;ratioP2
49310;SDS011;35177;45.900;5.946;2023-02-28T00:00:21;10.57;;;7.35;;
49310;SDS011;35177;45.900;5.946;2023-02-28T00:02:47;9.80;;;8.27;;
49310;SDS011;35177;45.900;5.946;2023-02-28T00:05:14;9.32;;;6.90;;
49310;SDS011;35177;45.900;5.946;2023-02-28T00:07:42;11.27;;;8.57;;
49310;SDS011;35177;45.900;5.946;2023-02-28T00:10:08;10.27;;;7.32;;
49310;SDS011;35177;45.900;5.946;2023-02-28T00:12:36;11.88;;;7.68;;
49310;SDS011;35177;45.900;5.946;2023-02-28T00:15:02;10.63;;;7.93;;
49310;SDS011;35177;45.900;5.946;2023-02-28T00:17:30;10.43;;;7.40;;
49310;SDS011;35177;45.900;5.946;2023-02-28T00:19:56;9.02;;;7.20;;
49310;SDS011;35177;45.900;5.946;2023-02-28T00:22:26;10.60;;;7.82;;
49310;SDS011;35177;45.900;5.946;2023-02-28T00:24:52;8.52;;;7.25;;
49310;SDS011;35177;45.900;5.946;2023-02-28T00:27:18;11.52;;;7.55;;
49310;SDS011;35177;45.900;5.946;2023-02-28T00:29:43;10.23;;;7.40;;
49310;SDS011;35177;45.900;5.946;2023-02-28T00:32:11;17.02;;;8.50;;
49310;SDS011;35177;45.900;5.946;2023-02-28T00:34:36;10.73;;;8.07;;
49310;SDS011;35177;45.900;5.946;2023-02-28T00:37:03;9.55;;;7.50;;
49310;SDS011;35177;45.900;5.946;2023-02-28T00:39:30;9.57;;;7.28;;
49310;SDS011;35177;45.900;5.946;2023-02-28T00:41:56;9.18;;;7.60;;
49310;SDS011;35177;45.900;5.946;2023-02-28T00:44:21;9.07;;;6.97;;
49310;SDS011;35177;45.900;5.946;2023-02-28T00:46:47;9.55;;;7.70;;
49310;SDS011;35177;45.900;5.946;2023-02-28T00:49:12;12.05;;;8.32;;
49310;SDS011;35177;45.900;5.946;2023-02-28T00:51:38;10.40;;;7.57;;
49310;SDS011;35177;45.900;5.946;2023-02-28T00:54:03;11.15;;;7.55;;
49310;SDS011;35177;45.900;5.946;2023-02-28T00:56:29;13.45;;;9.20;;
49310;SDS011;35177;45.900;5.946;2023-02-28T00:58:54;11.65;;;8.02;;
49310;SDS011;35177;45.900;5.946;2023-02-28T01:01:20;12.27;;;8.30;;
49310;SDS011;35177;45.900;5.946;2023-02-28T01:03:45;15.82;;;8.32;;
49310;SDS011;35177;45.900;5.946;2023-02-28T01:06:11;10.45;;;7.72;;
49310;SDS011;35177;45.900;5.946;2023-02-28T01:08:36;10.02;;;7.25;;
49310;SDS011;35177;45.900;5.946;2023-02-28T01:11:08;10.88;;;7.90;;
49310;SDS011;35177;45.900;5.946;2023-02-28T01:13:39;9.95;;;7.70;;
49310;SDS011;35177;45.900;5.946;2023-02-28T01:16:05;14.10;;;8.60;;
49310;SDS011;35177;45.900;5.946;2023-02-28T01:18:31;10.90;;;7.20;;
49310;SDS011;35177;45.900;5.946;2023-02-28T01:20:56;10.23;;;7.45;;
49310;SDS011;35177;45.900;5.946;2023-02-28T01:23:22;8.85;;;6.60;;
49310;SDS011;35177;45.900;5.946;2023-02-28T01:25:49;11.05;;;6.95;;
49310;SDS011;35177;45.900;5.946;2023-02-28T01:28:15;10.27;;;7.60;;
49310;SDS011;35177;45.900;5.946;2023-02-28T01:30:41;11.48;;;6.85;;
49310;SDS011;35177;45.900;5.946;2023-02-28T01:33:07;10.00;;;7.05;;
49310;SDS011;35177;45.900;5.946;2023-02-28T01:35:33;11.25;;;7.10;;
49310;SDS011;35177;45.900;5.946;2023-02-28T01:37:59;7.95;;;6.63;;
49310;SDS011;35177;45.900;5.946;2023-02-28T01:40:25;12.15;;;6.88;;
49310;SDS011;35177;45.900;5.946;2023-02-28T01:42:50;8.85;;;7.00;;
49310;SDS011;35177;45.900;5.946;2023-02-28T01:45:20;8.57;;;6.65;;
49310;SDS011;35177;45.900;5.946;2023-02-28T01:47:47;9.40;;;6.10;;
49310;SDS011;35177;45.900;5.946;2023-02-28T01:50:16;12.70;;;7.28;;
49310;SDS011;35177;45.900;5.946;2023-02-28T01:52:47;10.35;;;7.45;;
49310;SDS011;35177;45.900;5.946;2023-02-28T01:55:14;9.65;;;6.55;;
49310;SDS011;35177;45.900;5.946;2023-02-28T01:57:45;11.02;;;7.15;;
49310;SDS011;35177;45.900;5.946;2023-02-28T02:00:14;13.02;;;7.05;;
49310;SDS011;35177;45.900;5.946;2023-02-28T02:02:42;11.43;;;7.05;;
49310;SDS011;35177;45.900;5.946;2023-02-28T02:05:15;7.93;;;6.70;;
49310;SDS011;35177;45.900;5.946;2023-02-28T02:07:44;10.68;;;7.50;;
49310;SDS011;35177;45.900;5.946;2023-02-28T02:10:16;9.75;;;7.07;;
49310;SDS011;35177;45.900;5.946;2023-02-28T02:18:43;9.20;;;6.78;;
49310;SDS011;35177;45.900;5.946;2023-02-28T02:35:38;8.05;;;5.82;;
49310;SDS011;35177;45.900;5.946;2023-02-28T02:43:19;9.98;;;7.18;;
49310;SDS011;35177;45.900;5.946;2023-02-28T02:45:57;9.32;;;6.65;;
49310;SDS011;35177;45.900;5.946;2023-02-28T02:48:29;11.25;;;7.20;;
49310;SDS011;35177;45.900;5.946;2023-02-28T02:50:59;10.85;;;7.00;;
49310;SDS011;35177;45.900;5.946;2023-02-28T02:53:52;9.27;;;6.65;;
49310;SDS011;35177;45.900;5.946;2023-02-28T02:56:48;8.70;;;6.47;;
49310;SDS011;35177;45.900;5.946;2023-02-28T02:59:16;7.70;;;6.55;;
49310;SDS011;35177;45.900;5.946;2023-02-28T03:01:46;10.05;;;7.13;;
49310;SDS011;35177;45.900;5.946;2023-02-28T03:04:22;9.73;;;7.03;;
49310;SDS011;35177;45.900;5.946;2023-02-28T03:06:50;9.20;;;6.13;;
49310;SDS011;35177;45.900;5.946;2023-02-28T03:09:22;9.18;;;7.07;;
49310;SDS011;35177;45.900;5.946;2023-02-28T03:11:48;9.55;;;6.72;;
49310;SDS011;35177;45.900;5.946;2023-02-28T03:20:16;10.98;;;7.50;;
49310;SDS011;35177;45.900;5.946;2023-02-28T03:28:08;12.20;;;6.97;;
49310;SDS011;35177;45.900;5.946;2023-02-28T03:30:53;9.38;;;6.55;;
49310;SDS011;35177;45.900;5.946;2023-02-28T03:33:39;8.73;;;6.72;;
49310;SDS011;35177;45.900;5.946;2023-02-28T03:36:10;9.32;;;7.35;;
49310;SDS011;35177;45.900;5.946;2023-02-28T03:41:37;11.38;;;6.72;;
49310;SDS011;35177;45.900;5.946;2023-02-28T03:44:12;11.77;;;6.60;;
49310;SDS011;35177;45.900;5.946;2023-02-28T03:47:17;9.18;;;6.90;;
49310;SDS011;35177;45.900;5.946;2023-02-28T03:49:48;9.02;;;6.65;;
49310;SDS011;35177;45.900;5.946;2023-02-28T03:52:21;12.07;;;7.63;;
49310;SDS011;35177;45.900;5.946;2023-02-28T03:54:54;9.10;;;7.20;;
49310;SDS011;35177;45.900;5.946;2023-02-28T04:00:30;11.25;;;7.65;;
49310;SDS011;35177;45.900;5.946;2023-02-28T04:02:59;9.43;;;7.32;;
49310;SDS011;35177;45.900;5.946;2023-02-28T04:05:25;8.20;;;6.95;;
49310;SDS011;35177;45.900;5.946;2023-02-28T04:07:52;10.55;;;7.55;;
49310;SDS011;35177;45.900;5.946;2023-02-28T04:10:19;8.23;;;6.75;;
49310;SDS011;35177;45.900;5.946;2023-02-28T04:12:45;9.55;;;7.45;;
49310;SDS011;35177;45.900;5.946;2023-02-28T04:15:10;11.43;;;7.57;;
49310;SDS011;35177;45.900;5.946;2023-02-28T04:17:36;12.75;;;7.90;;
49310;SDS011;35177;45.900;5.946;2023-02-28T04:20:02;8.77;;;7.38;;
49310;SDS011;35177;45.900;5.946;2023-02-28T04:22:28;10.50;;;7.50;;
49310;SDS011;35177;45.900;5.946;2023-02-28T04:24:54;10.05;;;7.75;;
49310;SDS011;35177;45.900;5.946;2023-02-28T04:27:20;8.70;;;6.60;;
49310;SDS011;35177;45.900;5.946;2023-02-28T04:29:46;10.38;;;7.47;;
49310;SDS011;35177;45.900;5.946;2023-02-28T04:32:12;9.00;;;6.80;;
49310;SDS011;35177;45.900;5.946;2023-02-28T04:34:37;11.13;;;7.95;;
49310;SDS011;35177;45.900;5.946;2023-02-28T04:37:04;9.93;;;8.13;;
49310;SDS011;35177;45.900;5.946;2023-02-28T04:39:30;10.15;;;7.40;;
49310;SDS011;35177;45.900;5.946;2023-02-28T04:42:01;8.45;;;6.93;;
49310;SDS011;35177;45.900;5.946;2023-02-28T04:44:26;11.15;;;7.55;;
49310;SDS011;35177;45.900;5.946;2023-02-28T04:46:52;10.07;;;7.78;;
49310;SDS011;35177;45.900;5.946;2023-02-28T04:49:17;10.68;;;7.93;;
49310;SDS011;35177;45.900;5.946;2023-02-28T04:51:42;10.00;;;7.43;;
49310;SDS011;35177;45.900;5.946;2023-02-28T04:54:08;10.35;;;8.00;;
49310;SDS011;35177;45.900;5.946;2023-02-28T04:56:34;13.52;;;7.72;;
49310;SDS011;35177;45.900;5.946;2023-02-28T04:59:00;11.35;;;8.23;;
49310;SDS011;35177;45.900;5.946;2023-02-28T05:01:26;12.35;;;9.07;;
49310;SDS011;35177;45.900;5.946;2023-02-28T05:03:58;11.57;;;8.63;;
49310;SDS011;35177;45.900;5.946;2023-02-28T05:06:25;11.55;;;8.02;;
49310;SDS011;35177;45.900;5.946;2023-02-28T05:08:52;10.80;;;8.35;;
49310;SDS011;35177;45.900;5.946;2023-02-28T05:11:20;17.88;;;12.38;;
49310;SDS011;35177;45.900;5.946;2023-02-28T05:13:50;19.13;;;14.02;;
49310;SDS011;35177;45.900;5.946;2023-02-28T05:16:17;18.95;;;13.07;;
49310;SDS011;35177;45.900;5.946;2023-02-28T05:18:43;14.88;;;11.23;;
49310;SDS011;35177;45.900;5.946;2023-02-28T05:24:15;14.93;;;9.10;;
49310;SDS011;35177;45.900;5.946;2023-02-28T05:26:47;12.20;;;9.23;;
49310;SDS011;35177;45.900;5.946;2023-02-28T05:29:14;12.77;;;9.52;;
49310;SDS011;35177;45.900;5.946;2023-02-28T05:31:39;11.35;;;8.32;;
49310;SDS011;35177;45.900;5.946;2023-02-28T05:34:04;12.18;;;8.05;;
49310;SDS011;35177;45.900;5.946;2023-02-28T05:36:30;11.38;;;8.25;;
49310;SDS011;35177;45.900;5.946;2023-02-28T05:38:56;11.27;;;7.90;;
49310;SDS011;35177;45.900;5.946;2023-02-28T05:41:22;11.68;;;8.05;;
49310;SDS011;35177;45.900;5.946;2023-02-28T05:43:47;13.85;;;9.45;;
49310;SDS011;35177;45.900;5.946;2023-02-28T05:46:13;14.35;;;9.70;;
49310;SDS011;35177;45.900;5.946;2023-02-28T05:48:40;18.35;;;11.23;;
49310;SDS011;35177;45.900;5.946;2023-02-28T05:51:07;12.05;;;8.93;;
49310;SDS011;35177;45.900;5.946;2023-02-28T05:53:33;11.05;;;8.70;;
49310;SDS011;35177;45.900;5.946;2023-02-28T05:55:59;12.40;;;9.15;;
49310;SDS011;35177;45.900;5.946;2023-02-28T05:58:25;15.15;;;8.50;;
49310;SDS011;35177;45.900;5.946;2023-02-28T06:00:55;17.55;;;10.45;;
49310;SDS011;35177;45.900;5.946;2023-02-28T06:03:25;14.80;;;10.20;;
49310;SDS011;35177;45.900;5.946;2023-02-28T06:05:50;16.45;;;10.82;;
49310;SDS011;35177;45.900;5.946;2023-02-28T06:08:16;12.65;;;9.23;;
49310;SDS011;35177;45.900;5.946;2023-02-28T06:10:41;11.98;;;8.82;;
49310;SDS011;35177;45.900;5.946;2023-02-28T06:13:07;14.07;;;8.70;;
49310;SDS011;35177;45.900;5.946;2023-02-28T06:15:32;11.27;;;8.55;;
49310;SDS011;35177;45.900;5.946;2023-02-28T06:17:58;12.95;;;9.60;;
49310;SDS011;35177;45.900;5.946;2023-02-28T06:20:24;12.85;;;8.75;;
49310;SDS011;35177;45.900;5.946;2023-02-28T06:22:56;12.73;;;8.65;;
49310;SDS011;35177;45.900;5.946;2023-02-28T06:25:23;13.27;;;9.23;;
49310;SDS011;35177;45.900;5.946;2023-02-28T06:27:49;14.05;;;9.13;;
49310;SDS011;35177;45.900;5.946;2023-02-28T06:30:15;10.48;;;8.73;;
49310;SDS011;35177;45.900;5.946;2023-02-28T06:32:41;15.25;;;9.73;;
49310;SDS011;35177;45.900;5.946;2023-02-28T06:35:07;12.50;;;9.63;;
49310;SDS011;35177;45.900;5.946;2023-02-28T06:37:32;12.95;;;9.18;;
49310;SDS011;35177;45.900;5.946;2023-02-28T06:39:58;13.80;;;9.00;;
49310;SDS011;35177;45.900;5.946;2023-02-28T06:42:24;11.20;;;8.70;;
49310;SDS011;35177;45.900;5.946;2023-02-28T06:44:53;11.90;;;8.82;;
49310;SDS011;35177;45.900;5.946;2023-02-28T06:47:22;16.88;;;9.20;;
49310;SDS011;35177;45.900;5.946;2023-02-28T06:49:48;11.82;;;8.88;;
49310;SDS011;35177;45.900;5.946;2023-02-28T06:52:14;11.57;;;8.40;;
49310;SDS011;35177;45.900;5.946;2023-02-28T06:54:40;11.93;;;8.65;;
49310;SDS011;35177;45.900;5.946;2023-02-28T06:57:06;11.88;;;8.55;;
49310;SDS011;35177;45.900;5.946;2023-02-28T06:59:31;12.63;;;9.35;;
49310;SDS011;35177;45.900;5.946;2023-02-28T07:01:57;15.80;;;9.55;;
49310;SDS011;35177;45.900;5.946;2023-02-28T07:04:23;12.80;;;9.63;;
49310;SDS011;35177;45.900;5.946;2023-02-28T07:06:48;13.15;;;9.25;;
49310;SDS011;35177;45.900;5.946;2023-02-28T07:09:14;15.82;;;9.23;;
49310;SDS011;35177;45.900;5.946;2023-02-28T07:11:40;13.50;;;9.15;;
49310;SDS011;35177;45.900;5.946;2023-02-28T07:14:07;13.07;;;8.82;;
49310;SDS011;35177;45.900;5.946;2023-02-28T07:16:33;14.23;;;9.30;;
49310;SDS011;35177;45.900;5.946;2023-02-28T07:18:59;11.43;;;8.90;;
49310;SDS011;35177;45.900;5.946;2023-02-28T07:21:24;13.32;;;9.43;;
49310;SDS011;35177;45.900;5.946;2023-02-28T07:23:50;21.25;;;12.90;;
49310;SDS011;35177;45.900;5.946;2023-02-28T07:26:16;14.50;;;10.35;;
49310;SDS011;35177;45.900;5.946;2023-02-28T07:28:44;18.27;;;10.23;;
49310;SDS011;35177;45.900;5.946;2023-02-28T07:31:11;14.95;;;10.32;;
49310;SDS011;35177;45.900;5.946;2023-02-28T07:33:39;16.13;;;10.45;;
49310;SDS011;35177;45.900;5.946;2023-02-28T07:36:13;13.80;;;10.60;;
49310;SDS011;35177;45.900;5.946;2023-02-28T07:38:42;18.75;;;10.23;;
49310;SDS011;35177;45.900;5.946;2023-02-28T07:41:09;12.90;;;9.80;;
49310;SDS011;35177;45.900;5.946;2023-02-28T07:43:35;11.90;;;9.55;;
49310;SDS011;35177;45.900;5.946;2023-02-28T07:46:03;14.73;;;9.95;;
49310;SDS011;35177;45.900;5.946;2023-02-28T07:48:30;14.10;;;9.88;;
49310;SDS011;35177;45.900;5.946;2023-02-28T07:50:56;13.85;;;10.20;;
49310;SDS011;35177;45.900;5.946;2023-02-28T07:53:23;17.30;;;10.45;;
49310;SDS011;35177;45.900;5.946;2023-02-28T07:55:49;14.05;;;9.95;;
49310;SDS011;35177;45.900;5.946;2023-02-28T07:58:14;14.63;;;10.60;;
49310;SDS011;35177;45.900;5.946;2023-02-28T08:00:40;12.38;;;9.20;;
49310;SDS011;35177;45.900;5.946;2023-02-28T08:03:05;14.50;;;10.38;;
49310;SDS011;35177;45.900;5.946;2023-02-28T08:05:31;13.95;;;9.77;;
49310;SDS011;35177;45.900;5.946;2023-02-28T08:07:56;13.57;;;9.63;;
49310;SDS011;35177;45.900;5.946;2023-02-28T08:10:22;13.77;;;9.43;;
49310;SDS011;35177;45.900;5.946;2023-02-28T08:12:49;16.70;;;10.60;;
49310;SDS011;35177;45.900;5.946;2023-02-28T08:15:14;13.20;;;9.18;;
49310;SDS011;35177;45.900;5.946;2023-02-28T08:17:40;14.00;;;9.18;;
49310;SDS011;35177;45.900;5.946;2023-02-28T08:20:06;13.13;;;9.68;;
49310;SDS011;35177;45.900;5.946;2023-02-28T08:22:32;13.73;;;9.63;;
49310;SDS011;35177;45.900;5.946;2023-02-28T08:24:58;12.23;;;9.48;;
49310;SDS011;35177;45.900;5.946;2023-02-28T08:27:23;13.30;;;9.65;;
49310;SDS011;35177;45.900;5.946;2023-02-28T08:29:48;15.90;;;9.98;;
49310;SDS011;35177;45.900;5.946;2023-02-28T08:32:14;11.77;;;9.32;;
49310;SDS011;35177;45.900;5.946;2023-02-28T08:34:40;16.38;;;9.73;;
49310;SDS011;35177;45.900;5.946;2023-02-28T08:37:05;12.07;;;9.55;;
49310;SDS011;35177;45.900;5.946;2023-02-28T08:39:33;12.68;;;10.20;;
49310;SDS011;35177;45.900;5.946;2023-02-28T08:42:01;13.10;;;9.13;;
49310;SDS011;35177;45.900;5.946;2023-02-28T08:44:27;13.32;;;10.45;;
49310;SDS011;35177;45.900;5.946;2023-02-28T08:46:52;14.05;;;8.93;;
49310;SDS011;35177;45.900;5.946;2023-02-28T08:49:18;12.38;;;9.52;;
49310;SDS011;35177;45.900;5.946;2023-02-28T08:51:43;13.88;;;9.43;;
49310;SDS011;35177;45.900;5.946;2023-02-28T08:54:09;13.30;;;9.23;;
49310;SDS011;35177;45.900;5.946;2023-02-28T08:56:37;14.20;;;9.95;;
49310;SDS011;35177;45.900;5.946;2023-02-28T08:59:03;12.23;;;9.63;;
49310;SDS011;35177;45.900;5.946;2023-02-28T09:01:29;13.15;;;10.23;;
49310;SDS011;35177;45.900;5.946;2023-02-28T09:03:56;12.05;;;9.10;;
49310;SDS011;35177;45.900;5.946;2023-02-28T09:06:23;12.52;;;8.80;;
49310;SDS011;35177;45.900;5.946;2023-02-28T09:08:50;12.77;;;8.90;;
49310;SDS011;35177;45.900;5.946;2023-02-28T09:11:16;11.20;;;9.65;;
49310;SDS011;35177;45.900;5.946;2023-02-28T09:13:43;12.70;;;8.55;;
49310;SDS011;35177;45.900;5.946;2023-02-28T09:16:10;10.05;;;8.18;;
49310;SDS011;35177;45.900;5.946;2023-02-28T09:18:38;12.68;;;8.45;;
49310;SDS011;35177;45.900;5.946;2023-02-28T09:21:04;11.25;;;9.07;;
49310;SDS011;35177;45.900;5.946;2023-02-28T09:23:31;9.73;;;8.27;;
49310;SDS011;35177;45.900;5.946;2023-02-28T09:25:57;10.35;;;7.75;;
49310;SDS011;35177;45.900;5.946;2023-02-28T09:28:22;12.20;;;8.90;;
49310;SDS011;35177;45.900;5.946;2023-02-28T09:30:49;12.35;;;8.45;;
49310;SDS011;35177;45.900;5.946;2023-02-28T09:33:17;10.30;;;8.50;;
49310;SDS011;35177;45.900;5.946;2023-02-28T09:35:45;10.80;;;8.73;;
49310;SDS011;35177;45.900;5.946;2023-02-28T09:38:11;11.52;;;9.27;;
49310;SDS011;35177;45.900;5.946;2023-02-28T09:40:38;10.13;;;8.23;;
49310;SDS011;35177;45.900;5.946;2023-02-28T09:43:12;12.70;;;8.45;;
49310;SDS011;35177;45.900;5.946;2023-02-28T09:45:40;10.82;;;8.88;;
49310;SDS011;35177;45.900;5.946;2023-02-28T09:50:41;10.85;;;8.50;;
49310;SDS011;35177;45.900;5.946;2023-02-28T09:55:53;12.73;;;8.98;;
49310;SDS011;35177;45.900;5.946;2023-02-28T10:01:07;12.70;;;9.32;;
49310;SDS011;35177;45.900;5.946;2023-02-28T10:06:38;11.50;;;8.88;;
49310;SDS011;35177;45.900;5.946;2023-02-28T10:09:07;13.02;;;9.23;;
49310;SDS011;35177;45.900;5.946;2023-02-28T10:11:39;12.52;;;9.60;;
49310;SDS011;35177;45.900;5.946;2023-02-28T10:14:10;11.65;;;9.07;;
49310;SDS011;35177;45.900;5.946;2023-02-28T10:16:40;10.55;;;9.05;;
49310;SDS011;35177;45.900;5.946;2023-02-28T10:19:55;12.23;;;9.07;;
49310;SDS011;35177;45.900;5.946;2023-02-28T10:24:48;11.15;;;8.65;;
49310;SDS011;35177;45.900;5.946;2023-02-28T10:27:17;11.43;;;9.48;;
49310;SDS011;35177;45.900;5.946;2023-02-28T10:29:46;11.63;;;8.98;;
49310;SDS011;35177;45.900;5.946;2023-02-28T10:32:35;13.45;;;8.88;;
49310;SDS011;35177;45.900;5.946;2023-02-28T10:37:31;10.88;;;8.88;;
49310;SDS011;35177;45.900;5.946;2023-02-28T10:40:03;15.05;;;9.20;;
49310;SDS011;35177;45.900;5.946;2023-02-28T10:42:30;14.60;;;9.63;;
49310;SDS011;35177;45.900;5.946;2023-02-28T10:45:15;12.25;;;9.52;;
49310;SDS011;35177;45.900;5.946;2023-02-28T10:47:49;11.00;;;9.23;;
49310;SDS011;35177;45.900;5.946;2023-02-28T10:50:29;14.45;;;10.30;;
49310;SDS011;35177;45.900;5.946;2023-02-28T10:55:35;14.82;;;10.18;;
49310;SDS011;35177;45.900;5.946;2023-02-28T10:58:02;12.07;;;8.55;;
49310;SDS011;35177;45.900;5.946;2023-02-28T11:00:32;12.85;;;9.85;;
49310;SDS011;35177;45.900;5.946;2023-02-28T11:02:59;12.05;;;8.43;;
49310;SDS011;35177;45.900;5.946;2023-02-28T11:05:26;13.02;;;9.55;;
49310;SDS011;35177;45.900;5.946;2023-02-28T11:08:06;10.38;;;9.00;;
49310;SDS011;35177;45.900;5.946;2023-02-28T11:10:37;13.18;;;9.50;;
49310;SDS011;35177;45.900;5.946;2023-02-28T11:13:03;13.40;;;9.18;;
49310;SDS011;35177;45.900;5.946;2023-02-28T11:15:31;12.48;;;9.57;;
49310;SDS011;35177;45.900;5.946;2023-02-28T11:20:53;12.77;;;8.35;;
49310;SDS011;35177;45.900;5.946;2023-02-28T11:23:21;13.50;;;10.07;;
49310;SDS011;35177;45.900;5.946;2023-02-28T11:25:57;12.23;;;9.52;;
49310;SDS011;35177;45.900;5.946;2023-02-28T11:28:32;10.88;;;8.90;;
49310;SDS011;35177;45.900;5.946;2023-02-28T11:31:03;11.68;;;8.75;;
49310;SDS011;35177;45.900;5.946;2023-02-28T11:33:41;11.70;;;8.95;;
49310;SDS011;35177;45.900;5.946;2023-02-28T11:36:22;11.57;;;9.23;;
49310;SDS011;35177;45.900;5.946;2023-02-28T11:38:53;10.40;;;8.55;;
49310;SDS011;35177;45.900;5.946;2023-02-28T11:44:27;10.77;;;8.75;;
49310;SDS011;35177;45.900;5.946;2023-02-28T11:55:17;14.40;;;10.02;;
49310;SDS011;35177;45.900;5.946;2023-02-28T12:09:02;13.15;;;9.18;;
49310;SDS011;35177;45.900;5.946;2023-02-28T12:11:34;13.20;;;9.23;;
49310;SDS011;35177;45.900;5.946;2023-02-28T12:21:52;15.95;;;8.95;;
49310;SDS011;35177;45.900;5.946;2023-02-28T12:24:37;12.25;;;9.30;;
49310;SDS011;35177;45.900;5.946;2023-02-28T12:27:16;12.93;;;9.35;;
49310;SDS011;35177;45.900;5.946;2023-02-28T12:30:03;12.07;;;9.27;;
49310;SDS011;35177;45.900;5.946;2023-02-28T12:40:01;13.07;;;10.10;;
49310;SDS011;35177;45.900;5.946;2023-02-28T12:42:34;12.75;;;10.00;;
49310;SDS011;35177;45.900;5.946;2023-02-28T12:45:12;10.82;;;8.80;;
49310;SDS011;35177;45.900;5.946;2023-02-28T12:47:44;10.85;;;9.02;;
49310;SDS011;35177;45.900;5.946;2023-02-28T12:50:12;11.77;;;9.43;;
49310;SDS011;35177;45.900;5.946;2023-02-28T12:52:41;12.90;;;9.27;;
49310;SDS011;35177;45.900;5.946;2023-02-28T13:06:45;10.95;;;9.30;;
49310;SDS011;35177;45.900;5.946;2023-02-28T13:09:29;10.95;;;9.50;;
49310;SDS011;35177;45.900;5.946;2023-02-28T13:11:55;11.35;;;9.52;;
49310;SDS011;35177;45.900;5.946;2023-02-28T13:19:26;13.15;;;9.20;;
49310;SDS011;35177;45.900;5.946;2023-02-28T13:21:55;14.10;;;9.93;;
49310;SDS011;35177;45.900;5.946;2023-02-28T13:29:37;14.18;;;10.77;;
49310;SDS011;35177;45.900;5.946;2023-02-28T13:34:32;12.20;;;9.52;;
49310;SDS011;35177;45.900;5.946;2023-02-28T13:40:26;14.00;;;10.18;;
49310;SDS011;35177;45.900;5.946;2023-02-28T13:42:51;13.77;;;9.18;;
49310;SDS011;35177;45.900;5.946;2023-02-28T13:45:24;15.05;;;10.60;;
49310;SDS011;35177;45.900;5.946;2023-02-28T13:47:54;12.50;;;9.50;;
49310;SDS011;35177;45.900;5.946;2023-02-28T14:07:05;14.15;;;9.95;;
49310;SDS011;35177;45.900;5.946;2023-02-28T14:09:41;11.75;;;9.27;;
49310;SDS011;35177;45.900;5.946;2023-02-28T14:18:22;13.95;;;10.85;;
49310;SDS011;35177;45.900;5.946;2023-02-28T14:21:59;14.98;;;10.35;;
49310;SDS011;35177;45.900;5.946;2023-02-28T14:37:37;11.98;;;9.52;;
49310;SDS011;35177;45.900;5.946;2023-02-28T14:40:16;17.83;;;10.65;;
49310;SDS011;35177;45.900;5.946;2023-02-28T14:42:54;15.50;;;11.02;;
49310;SDS011;35177;45.900;5.946;2023-02-28T14:45:21;13.88;;;10.93;;
49310;SDS011;35177;45.900;5.946;2023-02-28T14:47:48;15.55;;;11.38;;
49310;SDS011;35177;45.900;5.946;2023-02-28T14:53:15;15.20;;;10.38;;
49310;SDS011;35177;45.900;5.946;2023-02-28T14:55:45;12.15;;;10.18;;
49310;SDS011;35177;45.900;5.946;2023-02-28T14:58:23;15.38;;;10.07;;
49310;SDS011;35177;45.900;5.946;2023-02-28T15:00:52;16.17;;;9.73;;
49310;SDS011;35177;45.900;5.946;2023-02-28T15:03:21;13.57;;;10.40;;
49310;SDS011;35177;45.900;5.946;2023-02-28T15:05:52;14.63;;;10.38;;
49310;SDS011;35177;45.900;5.946;2023-02-28T15:08:23;14.20;;;10.50;;
49310;SDS011;35177;45.900;5.946;2023-02-28T15:10:53;14.30;;;10.20;;
49310;SDS011;35177;45.900;5.946;2023-02-28T15:13:20;13.82;;;10.65;;
49310;SDS011;35177;45.900;5.946;2023-02-28T15:15:53;13.38;;;10.10;;
49310;SDS011;35177;45.900;5.946;2023-02-28T15:21:15;14.38;;;10.65;;
49310;SDS011;35177;45.900;5.946;2023-02-28T15:23:44;14.85;;;11.07;;
49310;SDS011;35177;45.900;5.946;2023-02-28T15:26:18;14.73;;;10.15;;
49310;SDS011;35177;45.900;5.946;2023-02-28T15:28:47;12.93;;;11.10;;
49310;SDS011;35177;45.900;5.946;2023-02-28T15:31:28;13.70;;;10.57;;
49310;SDS011;35177;45.900;5.946;2023-02-28T15:34:02;14.02;;;10.98;;
49310;SDS011;35177;45.900;5.946;2023-02-28T15:36:30;17.45;;;12.05;;
49310;SDS011;35177;45.900;5.946;2023-02-28T15:38:58;14.88;;;10.43;;
49310;SDS011;35177;45.900;5.946;2023-02-28T15:41:26;13.30;;;10.23;;
49310;SDS011;35177;45.900;5.946;2023-02-28T15:46:41;15.40;;;10.88;;
49310;SDS011;35177;45.900;5.946;2023-02-28T15:49:17;18.88;;;10.85;;
49310;SDS011;35177;45.900;5.946;2023-02-28T15:51:44;13.18;;;10.90;;
49310;SDS011;35177;45.900;5.946;2023-02-28T15:54:15;14.55;;;10.80;;
49310;SDS011;35177;45.900;5.946;2023-02-28T15:56:47;14.38;;;10.43;;
49310;SDS011;35177;45.900;5.946;2023-02-28T15:59:18;12.63;;;10.10;;
49310;SDS011;35177;45.900;5.946;2023-02-28T16:02:15;13.98;;;10.70;;
49310;SDS011;35177;45.900;5.946;2023-02-28T16:05:00;14.68;;;10.63;;
49310;SDS011;35177;45.900;5.946;2023-02-28T16:07:35;13.93;;;10.95;;
49310;SDS011;35177;45.900;5.946;2023-02-28T16:10:02;14.98;;;9.77;;
49310;SDS011;35177;45.900;5.946;2023-02-28T16:12:29;16.25;;;10.77;;
49310;SDS011;35177;45.900;5.946;2023-02-28T16:14:57;15.48;;;11.25;;
49310;SDS011;35177;45.900;5.946;2023-02-28T16:17:31;15.20;;;11.02;;
49310;SDS011;35177;45.900;5.946;2023-02-28T16:19:59;16.95;;;11.88;;
49310;SDS011;35177;45.900;5.946;2023-02-28T16:22:25;15.13;;;11.65;;
49310;SDS011;35177;45.900;5.946;2023-02-28T16:24:51;17.80;;;10.85;;
49310;SDS011;35177;45.900;5.946;2023-02-28T16:29:54;15.55;;;11.30;;
49310;SDS011;35177;45.900;5.946;2023-02-28T16:32:19;16.50;;;11.35;;
49310;SDS011;35177;45.900;5.946;2023-02-28T16:34:45;16.13;;;10.98;;
49310;SDS011;35177;45.900;5.946;2023-02-28T16:37:14;16.52;;;10.57;;
49310;SDS011;35177;45.900;5.946;2023-02-28T16:39:42;12.73;;;9.98;;
49310;SDS011;35177;45.900;5.946;2023-02-28T16:42:25;15.20;;;11.00;;
49310;SDS011;35177;45.900;5.946;2023-02-28T16:44:53;14.10;;;9.63;;
49310;SDS011;35177;45.900;5.946;2023-02-28T16:47:20;16.13;;;11.05;;
49310;SDS011;35177;45.900;5.946;2023-02-28T16:49:46;19.65;;;11.63;;
49310;SDS011;35177;45.900;5.946;2023-02-28T16:52:12;15.57;;;11.10;;
49310;SDS011;35177;45.900;5.946;2023-02-28T16:54:39;24.35;;;13.85;;
49310;SDS011;35177;45.900;5.946;2023-02-28T16:57:06;20.27;;;13.75;;
49310;SDS011;35177;45.900;5.946;2023-02-28T16:59:38;16.67;;;11.80;;
49310;SDS011;35177;45.900;5.946;2023-02-28T17:02:08;15.15;;;11.32;;
49310;SDS011;35177;45.900;5.946;2023-02-28T17:04:44;19.42;;;11.68;;
49310;SDS011;35177;45.900;5.946;2023-02-28T17:07:11;16.67;;;12.38;;
49310;SDS011;35177;45.900;5.946;2023-02-28T17:09:39;15.77;;;11.25;;
49310;SDS011;35177;45.900;5.946;2023-02-28T17:12:05;15.43;;;11.48;;
49310;SDS011;35177;45.900;5.946;2023-02-28T17:14:31;18.60;;;11.77;;
49310;SDS011;35177;45.900;5.946;2023-02-28T17:16:57;23.10;;;14.25;;
49310;SDS011;35177;45.900;5.946;2023-02-28T17:19:22;24.83;;;13.95;;
49310;SDS011;35177;45.900;5.946;2023-02-28T17:21:48;29.52;;;17.90;;
49310;SDS011;35177;45.900;5.946;2023-02-28T17:24:13;24.58;;;14.85;;
49310;SDS011;35177;45.900;5.946;2023-02-28T17:26:39;18.00;;;12.57;;
49310;SDS011;35177;45.900;5.946;2023-02-28T17:29:11;15.45;;;10.95;;
49310;SDS011;35177;45.900;5.946;2023-02-28T17:31:40;15.48;;;10.55;;
49310;SDS011;35177;45.900;5.946;2023-02-28T17:34:05;15.63;;;11.50;;
49310;SDS011;35177;45.900;5.946;2023-02-28T17:36:31;20.17;;;12.75;;
49310;SDS011;35177;45.900;5.946;2023-02-28T17:38:58;19.63;;;11.52;;
49310;SDS011;35177;45.900;5.946;2023-02-28T17:41:24;15.48;;;11.45;;
49310;SDS011;35177;45.900;5.946;2023-02-28T17:43:51;17.98;;;12.02;;